Disclaimer

Please do not use the information listed here in-flight or in-navigation, as they are not provided to us by the airports but are provided by volunteers, so they might be outdated.

Search


Regions


Airport information page

Radio informations:
Tower (TWR) - 122.1 MHz
FARNBOROUGH LARS - 125.25 MHz
Ground (GND) - 241.025 MHz
Automatic Terminal Information Service (ATIS) - 379.375 MHz
Approach (APP) - 131.3 MHz

Airport informations:
Latitude: 51° 14' 02.90" N
Longitude: 000° 56' 34.17" W
Elevation: 405 feet - 123 meters
Operating hours: Remarks
Operating agency: Military
Timezone: UTC 0(+1DT) - Last Sunday in March to last Sunday in October
Fuel: N/A

Runway information:
10/28 - 6030 x 141 feet< - >1838 x 43 meters

Recent METARs:
EGVO 180750Z AUTO 05009KT 5000 BR NCD 03/03 Q1026
EGVO 180850Z AUTO 06010KT 6000 BR NCD 05/04 Q1027
EGVO 180850Z AUTO 06010KT 6000 BR NCD 05/04 Q1027

Airport on the map: